sensor_id;sensor_type;location;lat;lon;timestamp;pressure;altitude;pressure_sealevel;temperature;humidity
56014;BME280;41893;55.868;37.632;2022-09-09T00:04:04;100855.75;;;8.69;100.00
56014;BME280;41893;55.868;37.632;2022-09-09T00:06:43;100857.41;;;8.70;100.00
56014;BME280;41893;55.868;37.632;2022-09-09T00:09:16;100850.66;;;8.61;100.00
56014;BME280;41893;55.868;37.632;2022-09-09T00:11:52;100864.25;;;8.54;100.00
56014;BME280;41893;55.868;37.632;2022-09-09T00:17:04;100849.13;;;8.46;100.00
56014;BME280;41893;55.868;37.632;2022-09-09T00:19:48;100860.16;;;8.45;100.00
56014;BME280;41893;55.868;37.632;2022-09-09T00:22:20;100869.19;;;8.39;100.00
56014;BME280;41893;55.868;37.632;2022-09-09T00:24:55;100853.84;;;8.33;100.00
56014;BME280;41893;55.868;37.632;2022-09-09T00:27:34;100867.81;;;8.23;100.00
56014;BME280;41893;55.868;37.632;2022-09-09T00:30:17;100876.00;;;8.41;100.00
56014;BME280;41893;55.868;37.632;2022-09-09T00:32:47;100873.53;;;8.40;100.00
56014;BME280;41893;55.868;37.632;2022-09-09T00:37:42;100880.97;;;8.44;100.00
56014;BME280;41893;55.868;37.632;2022-09-09T00:40:32;100870.31;;;8.49;100.00
56014;BME280;41893;55.868;37.632;2022-09-09T00:48:47;100882.94;;;8.31;100.00
56014;BME280;41893;55.868;37.632;2022-09-09T00:51:57;100888.91;;;8.14;100.00
56014;BME280;41893;55.868;37.632;2022-09-09T00:54:38;100878.84;;;8.22;100.00
56014;BME280;41893;55.868;37.632;2022-09-09T00:57:29;100891.91;;;8.25;100.00
56014;BME280;41893;55.868;37.632;2022-09-09T01:06:14;100898.16;;;8.25;100.00
56014;BME280;41893;55.868;37.632;2022-09-09T01:11:12;100901.69;;;8.26;100.00
56014;BME280;41893;55.868;37.632;2022-09-09T01:13:42;100907.34;;;8.17;100.00
56014;BME280;41893;55.868;37.632;2022-09-09T01:16:13;100910.19;;;7.98;100.00
56014;BME280;41893;55.868;37.632;2022-09-09T01:18:46;100908.78;;;8.20;100.00
56014;BME280;41893;55.868;37.632;2022-09-09T01:24:08;100911.91;;;7.92;100.00
56014;BME280;41893;55.868;37.632;2022-09-09T01:26:56;100923.25;;;8.07;100.00
56014;BME280;41893;55.868;37.632;2022-09-09T01:29:25;100917.63;;;8.09;100.00
56014;BME280;41893;55.868;37.632;2022-09-09T01:31:54;100918.47;;;8.09;100.00
56014;BME280;41893;55.868;37.632;2022-09-09T01:34:21;100928.53;;;8.20;100.00
56014;BME280;41893;55.868;37.632;2022-09-09T01:39:13;100918.63;;;7.83;100.00
56014;BME280;41893;55.868;37.632;2022-09-09T01:41:40;100917.47;;;7.97;100.00
56014;BME280;41893;55.868;37.632;2022-09-09T01:44:10;100920.97;;;8.04;100.00
56014;BME280;41893;55.868;37.632;2022-09-09T01:46:38;100919.69;;;7.75;100.00
56014;BME280;41893;55.868;37.632;2022-09-09T01:49:08;100936.50;;;7.84;100.00
56014;BME280;41893;55.868;37.632;2022-09-09T01:51:36;100931.00;;;7.97;100.00
56014;BME280;41893;55.868;37.632;2022-09-09T01:54:08;100925.78;;;8.02;100.00
56014;BME280;41893;55.868;37.632;2022-09-09T02:00:08;100934.31;;;7.99;100.00
56014;BME280;41893;55.868;37.632;2022-09-09T02:03:09;100938.41;;;8.08;100.00
56014;BME280;41893;55.868;37.632;2022-09-09T02:06:32;100940.91;;;8.10;100.00
56014;BME280;41893;55.868;37.632;2022-09-09T02:09:11;100938.88;;;7.99;100.00
56014;BME280;41893;55.868;37.632;2022-09-09T02:11:40;100940.66;;;7.80;100.00
56014;BME280;41893;55.868;37.632;2022-09-09T02:14:26;100937.94;;;7.87;100.00
56014;BME280;41893;55.868;37.632;2022-09-09T02:17:02;100942.22;;;7.94;100.00
56014;BME280;41893;55.868;37.632;2022-09-09T02:19:50;100951.22;;;7.88;100.00
56014;BME280;41893;55.868;37.632;2022-09-09T02:22:31;100944.78;;;7.89;100.00
56014;BME280;41893;55.868;37.632;2022-09-09T02:25:00;100948.13;;;7.84;100.00
56014;BME280;41893;55.868;37.632;2022-09-09T02:27:29;100953.41;;;7.66;100.00
56014;BME280;41893;55.868;37.632;2022-09-09T02:29:56;100945.22;;;7.35;100.00
56014;BME280;41893;55.868;37.632;2022-09-09T02:32:42;100958.03;;;7.53;100.00
56014;BME280;41893;55.868;37.632;2022-09-09T02:35:14;100967.22;;;7.38;100.00
56014;BME280;41893;55.868;37.632;2022-09-09T02:37:42;100963.03;;;7.49;100.00
56014;BME280;41893;55.868;37.632;2022-09-09T02:40:13;100969.72;;;7.40;100.00
56014;BME280;41893;55.868;37.632;2022-09-09T02:42:48;100990.50;;;7.26;100.00
56014;BME280;41893;55.868;37.632;2022-09-09T02:45:18;100989.25;;;7.22;100.00
56014;BME280;41893;55.868;37.632;2022-09-09T02:48:21;100999.47;;;7.13;100.00
56014;BME280;41893;55.868;37.632;2022-09-09T02:50:51;100995.69;;;7.21;100.00
56014;BME280;41893;55.868;37.632;2022-09-09T02:53:39;100997.59;;;7.14;100.00
56014;BME280;41893;55.868;37.632;2022-09-09T02:56:15;101005.88;;;7.19;100.00
56014;BME280;41893;55.868;37.632;2022-09-09T02:58:44;100996.56;;;7.15;100.00
56014;BME280;41893;55.868;37.632;2022-09-09T03:01:12;100988.69;;;6.94;100.00
56014;BME280;41893;55.868;37.632;2022-09-09T03:03:38;100990.53;;;7.13;100.00
56014;BME280;41893;55.868;37.632;2022-09-09T03:06:08;101004.03;;;7.13;100.00
56014;BME280;41893;55.868;37.632;2022-09-09T03:08:35;101004.88;;;7.13;100.00
56014;BME280;41893;55.868;37.632;2022-09-09T03:11:01;101007.31;;;7.22;100.00
56014;BME280;41893;55.868;37.632;2022-09-09T03:13:30;101004.03;;;7.13;100.00
56014;BME280;41893;55.868;37.632;2022-09-09T03:15:55;101006.94;;;7.05;100.00
56014;BME280;41893;55.868;37.632;2022-09-09T03:18:21;101011.94;;;6.68;100.00
56014;BME280;41893;55.868;37.632;2022-09-09T03:20:51;101004.25;;;6.98;100.00
56014;BME280;41893;55.868;37.632;2022-09-09T03:23:18;101003.25;;;6.93;100.00
56014;BME280;41893;55.868;37.632;2022-09-09T03:25:51;101012.97;;;6.54;100.00
56014;BME280;41893;55.868;37.632;2022-09-09T03:28:23;101018.38;;;6.87;100.00
56014;BME280;41893;55.868;37.632;2022-09-09T03:30:50;101014.03;;;6.93;100.00
56014;BME280;41893;55.868;37.632;2022-09-09T03:33:17;101017.53;;;6.73;100.00
56014;BME280;41893;55.868;37.632;2022-09-09T03:35:46;101021.28;;;6.72;100.00
56014;BME280;41893;55.868;37.632;2022-09-09T03:38:16;101016.28;;;6.49;100.00
56014;BME280;41893;55.868;37.632;2022-09-09T03:40:50;101038.91;;;6.62;100.00
56014;BME280;41893;55.868;37.632;2022-09-09T03:43:17;101035.59;;;6.60;100.00
56014;BME280;41893;55.868;37.632;2022-09-09T03:45:46;101033.50;;;7.01;100.00
56014;BME280;41893;55.868;37.632;2022-09-09T03:48:16;101034.97;;;7.10;100.00
56014;BME280;41893;55.868;37.632;2022-09-09T03:53:11;101036.63;;;7.05;100.00
56014;BME280;41893;55.868;37.632;2022-09-09T03:55:37;101037.66;;;7.04;100.00
56014;BME280;41893;55.868;37.632;2022-09-09T03:58:03;101034.97;;;7.04;100.00
56014;BME280;41893;55.868;37.632;2022-09-09T04:00:29;101038.28;;;7.12;100.00
56014;BME280;41893;55.868;37.632;2022-09-09T04:02:56;101033.94;;;7.11;100.00
56014;BME280;41893;55.868;37.632;2022-09-09T04:05:22;101036.59;;;7.18;100.00
56014;BME280;41893;55.868;37.632;2022-09-09T04:07:48;101039.53;;;7.10;100.00
56014;BME280;41893;55.868;37.632;2022-09-09T04:10:14;101040.56;;;6.69;100.00
56014;BME280;41893;55.868;37.632;2022-09-09T04:12:42;101048.44;;;6.58;100.00
56014;BME280;41893;55.868;37.632;2022-09-09T04:15:08;101050.72;;;6.61;100.00
56014;BME280;41893;55.868;37.632;2022-09-09T04:17:35;101040.56;;;7.02;100.00
56014;BME280;41893;55.868;37.632;2022-09-09T04:20:02;101052.22;;;7.16;100.00
56014;BME280;41893;55.868;37.632;2022-09-09T04:22:30;101048.03;;;7.00;100.00
56014;BME280;41893;55.868;37.632;2022-09-09T04:24:56;101039.50;;;7.23;100.00
56014;BME280;41893;55.868;37.632;2022-09-09T04:27:22;101049.47;;;7.23;100.00
56014;BME280;41893;55.868;37.632;2022-09-09T04:29:47;101054.03;;;7.22;100.00
56014;BME280;41893;55.868;37.632;2022-09-09T04:32:13;101046.78;;;7.36;100.00
56014;BME280;41893;55.868;37.632;2022-09-09T04:34:39;101043.88;;;7.24;100.00
56014;BME280;41893;55.868;37.632;2022-09-09T04:37:08;101050.09;;;7.25;100.00
56014;BME280;41893;55.868;37.632;2022-09-09T04:39:34;101044.25;;;7.47;100.00
56014;BME280;41893;55.868;37.632;2022-09-09T04:42:00;101056.28;;;7.58;100.00
56014;BME280;41893;55.868;37.632;2022-09-09T04:44:26;101040.84;;;7.72;100.00
56014;BME280;41893;55.868;37.632;2022-09-09T04:46:52;101048.75;;;7.73;100.00
56014;BME280;41893;55.868;37.632;2022-09-09T04:49:18;101044.38;;;7.72;100.00
56014;BME280;41893;55.868;37.632;2022-09-09T04:51:43;101042.28;;;7.81;100.00
56014;BME280;41893;55.868;37.632;2022-09-09T04:54:09;101056.66;;;7.68;100.00
56014;BME280;41893;55.868;37.632;2022-09-09T04:56:38;101043.31;;;7.87;100.00
56014;BME280;41893;55.868;37.632;2022-09-09T04:59:04;101053.09;;;7.74;100.00
56014;BME280;41893;55.868;37.632;2022-09-09T05:01:39;101041.09;;;7.64;100.00
56014;BME280;41893;55.868;37.632;2022-09-09T05:04:06;101054.97;;;7.80;100.00
56014;BME280;41893;55.868;37.632;2022-09-09T05:06:34;101058.81;;;8.04;100.00
56014;BME280;41893;55.868;37.632;2022-09-09T05:09:01;101061.03;;;8.20;100.00
56014;BME280;41893;55.868;37.632;2022-09-09T05:11:30;101062.06;;;8.19;100.00
56014;BME280;41893;55.868;37.632;2022-09-09T05:14:08;101067.44;;;8.33;100.00
56014;BME280;41893;55.868;37.632;2022-09-09T05:16:36;101066.50;;;8.07;100.00
56014;BME280;41893;55.868;37.632;2022-09-09T05:19:03;101063.69;;;8.27;100.00
56014;BME280;41893;55.868;37.632;2022-09-09T05:21:39;101067.56;;;8.44;100.00
56014;BME280;41893;55.868;37.632;2022-09-09T05:24:07;101074.22;;;8.48;100.00
56014;BME280;41893;55.868;37.632;2022-09-09T05:26:33;101065.56;;;8.33;100.00
56014;BME280;41893;55.868;37.632;2022-09-09T05:29:01;101067.22;;;8.41;100.00
56014;BME280;41893;55.868;37.632;2022-09-09T05:31:30;101073.88;;;8.38;100.00
56014;BME280;41893;55.868;37.632;2022-09-09T05:33:56;101071.38;;;8.37;100.00
56014;BME280;41893;55.868;37.632;2022-09-09T05:36:22;101076.38;;;8.33;100.00
56014;BME280;41893;55.868;37.632;2022-09-09T05:38:52;101076.50;;;8.51;100.00
56014;BME280;41893;55.868;37.632;2022-09-09T05:41:20;101083.44;;;8.72;100.00
56014;BME280;41893;55.868;37.632;2022-09-09T05:43:46;101068.59;;;8.81;100.00
56014;BME280;41893;55.868;37.632;2022-09-09T05:46:19;101080.91;;;8.77;100.00
56014;BME280;41893;55.868;37.632;2022-09-09T05:48:48;101071.72;;;9.10;100.00
56014;BME280;41893;55.868;37.632;2022-09-09T05:51:24;101051.25;;;9.14;100.00
56014;BME280;41893;55.868;37.632;2022-09-09T05:53:51;101076.53;;;9.51;100.00
56014;BME280;41893;55.868;37.632;2022-09-09T05:56:23;101069.28;;;9.45;100.00
56014;BME280;41893;55.868;37.632;2022-09-09T05:58:51;101057.34;;;9.52;100.00
56014;BME280;41893;55.868;37.632;2022-09-09T06:01:22;101056.97;;;9.67;100.00
56014;BME280;41893;55.868;37.632;2022-09-09T06:03:49;101067.34;;;9.70;100.00
56014;BME280;41893;55.868;37.632;2022-09-09T06:06:26;101072.31;;;9.73;100.00
56014;BME280;41893;55.868;37.632;2022-09-09T06:08:55;101062.91;;;9.76;100.00
56014;BME280;41893;55.868;37.632;2022-09-09T06:11:27;101074.97;;;9.98;100.00
56014;BME280;41893;55.868;37.632;2022-09-09T06:13:53;101055.53;;;10.01;100.00
56014;BME280;41893;55.868;37.632;2022-09-09T06:16:25;101074.94;;;10.35;100.00
56014;BME280;41893;55.868;37.632;2022-09-09T06:18:53;101080.16;;;10.36;100.00
56014;BME280;41893;55.868;37.632;2022-09-09T06:21:23;101077.56;;;10.41;100.00
56014;BME280;41893;55.868;37.632;2022-09-09T06:23:49;101078.41;;;10.83;100.00
56014;BME280;41893;55.868;37.632;2022-09-09T06:26:27;101089.16;;;10.90;100.00
56014;BME280;41893;55.868;37.632;2022-09-09T06:28:56;101088.50;;;11.06;100.00
56014;BME280;41893;55.868;37.632;2022-09-09T06:31:26;101085.81;;;11.30;100.00
56014;BME280;41893;55.868;37.632;2022-09-09T06:33:53;101095.84;;;11.29;100.00
56014;BME280;41893;55.868;37.632;2022-09-09T06:36:24;101080.72;;;11.21;100.00
56014;BME280;41893;55.868;37.632;2022-09-09T06:38:51;101094.78;;;11.42;100.00
56014;BME280;41893;55.868;37.632;2022-09-09T06:41:19;101078.38;;;11.37;100.00
56014;BME280;41893;55.868;37.632;2022-09-09T06:43:46;101082.59;;;11.09;98.76
56014;BME280;41893;55.868;37.632;2022-09-09T06:46:20;101095.13;;;11.45;100.00
56014;BME280;41893;55.868;37.632;2022-09-09T06:48:54;101100.69;;;11.74;99.38
56014;BME280;41893;55.868;37.632;2022-09-09T06:51:28;101087.34;;;11.61;99.48
56014;BME280;41893;55.868;37.632;2022-09-09T06:53:56;101096.78;;;11.70;99.23
56014;BME280;41893;55.868;37.632;2022-09-09T06:56:37;101098.69;;;11.57;100.00
56014;BME280;41893;55.868;37.632;2022-09-09T06:59:09;101094.44;;;11.62;100.00
56014;BME280;41893;55.868;37.632;2022-09-09T07:01:38;101104.72;;;11.59;98.35
56014;BME280;41893;55.868;37.632;2022-09-09T07:04:09;101100.00;;;11.55;98.57
56014;BME280;41893;55.868;37.632;2022-09-09T07:06:41;101103.28;;;11.69;98.73
56014;BME280;41893;55.868;37.632;2022-09-09T07:09:14;101110.25;;;11.65;99.42
56014;BME280;41893;55.868;37.632;2022-09-09T07:11:45;101095.84;;;11.64;95.64
56014;BME280;41893;55.868;37.632;2022-09-09T07:14:13;101111.72;;;11.79;97.46
56014;BME280;41893;55.868;37.632;2022-09-09T07:16:43;101111.63;;;12.14;94.62
56014;BME280;41893;55.868;37.632;2022-09-09T07:19:10;101115.72;;;12.68;86.45
56014;BME280;41893;55.868;37.632;2022-09-09T07:21:37;101105.81;;;12.34;86.97
56014;BME280;41893;55.868;37.632;2022-09-09T07:24:03;101112.56;;;12.19;91.57
56014;BME280;41893;55.868;37.632;2022-09-09T07:26:33;101112.53;;;13.16;77.99
56014;BME280;41893;55.868;37.632;2022-09-09T07:29:00;101099.69;;;14.49;67.47
56014;BME280;41893;55.868;37.632;2022-09-09T07:31:33;101112.28;;;14.12;65.49
56014;BME280;41893;55.868;37.632;2022-09-09T07:34:01;101114.50;;;13.54;67.92
56014;BME280;41893;55.868;37.632;2022-09-09T07:36:28;101123.63;;;13.15;68.79
56014;BME280;41893;55.868;37.632;2022-09-09T07:38:58;101130.16;;;13.14;68.34
56014;BME280;41893;55.868;37.632;2022-09-09T07:41:37;101116.16;;;12.77;71.86
56014;BME280;41893;55.868;37.632;2022-09-09T07:44:06;101138.31;;;13.14;73.68
56014;BME280;41893;55.868;37.632;2022-09-09T07:46:33;101136.59;;;13.08;77.54
56014;BME280;41893;55.868;37.632;2022-09-09T07:49:00;101123.84;;;13.42;74.45
56014;BME280;41893;55.868;37.632;2022-09-09T07:51:31;101113.88;;;12.85;74.10
56014;BME280;41893;55.868;37.632;2022-09-09T07:54:02;101141.84;;;12.81;72.30
56014;BME280;41893;55.868;37.632;2022-09-09T07:56:31;101144.19;;;13.06;68.62
56014;BME280;41893;55.868;37.632;2022-09-09T07:58:58;101153.16;;;12.89;67.60
56014;BME280;41893;55.868;37.632;2022-09-09T08:01:27;101137.72;;;13.40;61.87
56014;BME280;41893;55.868;37.632;2022-09-09T08:06:26;101134.16;;;13.23;67.88
56014;BME280;41893;55.868;37.632;2022-09-09T08:08:53;101141.72;;;13.04;67.89
56014;BME280;41893;55.868;37.632;2022-09-09T08:11:23;101142.09;;;12.96;77.36
56014;BME280;41893;55.868;37.632;2022-09-09T08:13:51;101142.78;;;12.86;69.75
56014;BME280;41893;55.868;37.632;2022-09-09T08:16:19;101123.88;;;12.68;74.21
56014;BME280;41893;55.868;37.632;2022-09-09T08:18:52;101140.13;;;12.91;76.66
56014;BME280;41893;55.868;37.632;2022-09-09T08:21:23;101145.28;;;12.76;75.95
56014;BME280;41893;55.868;37.632;2022-09-09T08:23:51;101143.72;;;13.09;67.18
56014;BME280;41893;55.868;37.632;2022-09-09T08:26:23;101142.75;;;13.48;67.30
56014;BME280;41893;55.868;37.632;2022-09-09T08:28:55;101141.44;;;14.06;65.44
56014;BME280;41893;55.868;37.632;2022-09-09T08:31:25;101129.63;;;14.22;62.40
56014;BME280;41893;55.868;37.632;2022-09-09T08:33:51;101132.38;;;14.44;65.31
56014;BME280;41893;55.868;37.632;2022-09-09T08:36:19;101130.41;;;14.61;60.10
56014;BME280;41893;55.868;37.632;2022-09-09T08:38:51;101137.16;;;14.54;52.84
56014;BME280;41893;55.868;37.632;2022-09-09T08:44:07;101144.63;;;15.17;55.29
56014;BME280;41893;55.868;37.632;2022-09-09T08:47:20;101148.63;;;14.78;50.93
56014;BME280;41893;55.868;37.632;2022-09-09T08:52:30;101160.22;;;13.86;57.54
56014;BME280;41893;55.868;37.632;2022-09-09T08:55:02;101161.59;;;13.33;62.51
56014;BME280;41893;55.868;37.632;2022-09-09T08:57:30;101155.38;;;13.21;67.35
56014;BME280;41893;55.868;37.632;2022-09-09T08:59:58;101161.31;;;13.18;72.66
56014;BME280;41893;55.868;37.632;2022-09-09T09:03:04;101161.19;;;12.96;69.10
56014;BME280;41893;55.868;37.632;2022-09-09T09:05:31;101163.06;;;13.41;70.05
56014;BME280;41893;55.868;37.632;2022-09-09T09:10:48;101151.66;;;15.72;47.79
56014;BME280;41893;55.868;37.632;2022-09-09T09:13:20;101153.38;;;16.30;45.05
56014;BME280;41893;55.868;37.632;2022-09-09T09:15:55;101141.84;;;17.01;42.29
56014;BME280;41893;55.868;37.632;2022-09-09T09:18:22;101140.13;;;18.07;39.86
56014;BME280;41893;55.868;37.632;2022-09-09T09:20:58;101142.66;;;17.17;40.27
56014;BME280;41893;55.868;37.632;2022-09-09T09:23:35;101150.00;;;16.08;44.32
56014;BME280;41893;55.868;37.632;2022-09-09T09:26:07;101152.78;;;15.12;47.00
56014;BME280;41893;55.868;37.632;2022-09-09T09:28:36;101156.44;;;14.25;54.10
56014;BME280;41893;55.868;37.632;2022-09-09T09:31:11;101162.44;;;14.44;60.35
56014;BME280;41893;55.868;37.632;2022-09-09T09:33:51;101140.38;;;15.00;54.27
56014;BME280;41893;55.868;37.632;2022-09-09T09:36:23;101163.13;;;14.56;54.24
56014;BME280;41893;55.868;37.632;2022-09-09T09:39:00;101152.94;;;14.30;56.31
56014;BME280;41893;55.868;37.632;2022-09-09T09:43:58;101168.72;;;14.06;55.77
56014;BME280;41893;55.868;37.632;2022-09-09T09:46:25;101147.81;;;14.34;57.00
56014;BME280;41893;55.868;37.632;2022-09-09T09:49:01;101148.63;;;14.34;59.08
56014;BME280;41893;55.868;37.632;2022-09-09T09:51:30;101144.69;;;14.69;53.50
56014;BME280;41893;55.868;37.632;2022-09-09T09:54:27;101141.50;;;15.04;50.65
56014;BME280;41893;55.868;37.632;2022-09-09T09:57:08;101140.75;;;15.08;52.01
56014;BME280;41893;55.868;37.632;2022-09-09T09:59:35;101136.59;;;15.06;47.17
56014;BME280;41893;55.868;37.632;2022-09-09T10:02:23;101136.72;;;15.21;48.93
56014;BME280;41893;55.868;37.632;2022-09-09T10:05:05;101137.06;;;15.61;47.55
56014;BME280;41893;55.868;37.632;2022-09-09T10:07:34;101147.78;;;15.36;44.44
56014;BME280;41893;55.868;37.632;2022-09-09T10:09:59;101142.78;;;14.96;45.54
56014;BME280;41893;55.868;37.632;2022-09-09T10:15:52;101154.97;;;14.40;48.69
56014;BME280;41893;55.868;37.632;2022-09-09T10:19:09;101156.44;;;14.25;52.20
56014;BME280;41893;55.868;37.632;2022-09-09T10:21:42;101163.25;;;14.45;50.18
56014;BME280;41893;55.868;37.632;2022-09-09T10:32:41;101156.41;;;14.04;59.10
56014;BME280;41893;55.868;37.632;2022-09-09T10:40:49;101151.09;;;14.79;52.75
56014;BME280;41893;55.868;37.632;2022-09-09T10:43:44;101161.78;;;15.08;48.02
56014;BME280;41893;55.868;37.632;2022-09-09T10:52:12;101164.97;;;14.51;48.47
56014;BME280;41893;55.868;37.632;2022-09-09T10:55:01;101160.94;;;14.37;51.03
56014;BME280;41893;55.868;37.632;2022-09-09T10:57:42;101166.59;;;14.08;53.89
56014;BME280;41893;55.868;37.632;2022-09-09T11:02:55;101170.31;;;14.02;54.59
56014;BME280;41893;55.868;37.632;2022-09-09T11:05:44;101165.03;;;13.95;53.08
56014;BME280;41893;55.868;37.632;2022-09-09T11:08:21;101163.53;;;13.88;56.17
56014;BME280;41893;55.868;37.632;2022-09-09T11:10:57;101164.19;;;13.95;55.38
56014;BME280;41893;55.868;37.632;2022-09-09T11:13:34;101162.16;;;13.69;54.26
56014;BME280;41893;55.868;37.632;2022-09-09T11:16:11;101154.25;;;13.50;51.96
56014;BME280;41893;55.868;37.632;2022-09-09T11:18:42;101164.72;;;13.42;51.54
56014;BME280;41893;55.868;37.632;2022-09-09T11:21:37;101161.03;;;13.31;55.70
56014;BME280;41893;55.868;37.632;2022-09-09T11:24:30;101151.84;;;13.37;56.27
56014;BME280;41893;55.868;37.632;2022-09-09T11:27:05;101160.84;;;13.71;54.88
56014;BME280;41893;55.868;37.632;2022-09-09T11:40:30;101156.19;;;14.27;48.16
56014;BME280;41893;55.868;37.632;2022-09-09T11:43:13;101159.88;;;14.81;49.00
56014;BME280;41893;55.868;37.632;2022-09-09T11:45:41;101153.47;;;14.97;46.54
56014;BME280;41893;55.868;37.632;2022-09-09T11:48:32;101161.66;;;14.71;47.27
56014;BME280;41893;55.868;37.632;2022-09-09T11:51:04;101162.69;;;14.43;46.77
56014;BME280;41893;55.868;37.632;2022-09-09T11:53:34;101156.34;;;14.20;45.80
56014;BME280;41893;55.868;37.632;2022-09-09T11:56:22;101162.41;;;14.22;49.20
56014;BME280;41893;55.868;37.632;2022-09-09T11:59:25;101163.25;;;13.84;49.92
56014;BME280;41893;55.868;37.632;2022-09-09T12:02:03;101164.63;;;13.87;52.09
56014;BME280;41893;55.868;37.632;2022-09-09T12:04:40;101151.91;;;13.76;50.01
56014;BME280;41893;55.868;37.632;2022-09-09T12:09:56;101153.03;;;14.57;47.62
56014;BME280;41893;55.868;37.632;2022-09-09T12:12:32;101158.88;;;14.92;48.08
56014;BME280;41893;55.868;37.632;2022-09-09T12:20:17;101150.94;;;14.91;44.74
56014;BME280;41893;55.868;37.632;2022-09-09T12:26:03;101139.44;;;14.89;45.77
56014;BME280;41893;55.868;37.632;2022-09-09T12:31:12;101151.75;;;14.43;45.80
56014;BME280;41893;55.868;37.632;2022-09-09T12:33:44;101147.00;;;14.55;47.42
56014;BME280;41893;55.868;37.632;2022-09-09T12:36:28;101153.28;;;14.34;51.66
56014;BME280;41893;55.868;37.632;2022-09-09T12:38:56;101152.44;;;14.33;47.24
56014;BME280;41893;55.868;37.632;2022-09-09T12:41:27;101153.69;;;14.25;49.69
56014;BME280;41893;55.868;37.632;2022-09-09T12:44:09;101151.78;;;14.04;50.35
56014;BME280;41893;55.868;37.632;2022-09-09T12:46:44;101145.31;;;14.10;52.29
56014;BME280;41893;55.868;37.632;2022-09-09T12:51:54;101151.88;;;13.92;54.36
56014;BME280;41893;55.868;37.632;2022-09-09T12:54:22;101146.50;;;13.98;55.85
56014;BME280;41893;55.868;37.632;2022-09-09T12:56:49;101154.97;;;13.62;57.26
56014;BME280;41893;55.868;37.632;2022-09-09T12:59:36;101144.66;;;14.03;56.27
56014;BME280;41893;55.868;37.632;2022-09-09T13:02:02;101147.72;;;14.07;52.76
56014;BME280;41893;55.868;37.632;2022-09-09T13:04:28;101135.84;;;14.40;51.56
56014;BME280;41893;55.868;37.632;2022-09-09T13:06:54;101137.28;;;14.42;50.30
56014;BME280;41893;55.868;37.632;2022-09-09T13:09:30;101150.56;;;14.39;50.76
56014;BME280;41893;55.868;37.632;2022-09-09T13:11:57;101145.84;;;14.51;50.00
56014;BME280;41893;55.868;37.632;2022-09-09T13:14:32;101138.47;;;14.73;46.12
56014;BME280;41893;55.868;37.632;2022-09-09T13:17:02;101135.03;;;14.83;46.95
56014;BME280;41893;55.868;37.632;2022-09-09T13:19:32;101148.97;;;14.59;45.59
56014;BME280;41893;55.868;37.632;2022-09-09T13:21:59;101134.28;;;14.92;46.51
56014;BME280;41893;55.868;37.632;2022-09-09T13:24:28;101134.44;;;15.40;45.20
56014;BME280;41893;55.868;37.632;2022-09-09T13:27:03;101141.78;;;15.34;43.72
56014;BME280;41893;55.868;37.632;2022-09-09T13:29:31;101132.31;;;15.15;42.63
56014;BME280;41893;55.868;37.632;2022-09-09T13:32:26;101141.75;;;15.29;43.58
56014;BME280;41893;55.868;37.632;2022-09-09T13:35:00;101133.59;;;15.39;43.55
56014;BME280;41893;55.868;37.632;2022-09-09T13:37:37;101141.19;;;16.01;44.50
56014;BME280;41893;55.868;37.632;2022-09-09T13:40:05;101135.06;;;15.89;42.85
56014;BME280;41893;55.868;37.632;2022-09-09T13:42:34;101137.63;;;16.01;41.51
56014;BME280;41893;55.868;37.632;2022-09-09T13:45:04;101144.28;;;15.73;42.76
56014;BME280;41893;55.868;37.632;2022-09-09T13:47:36;101136.13;;;15.46;42.42
56014;BME280;41893;55.868;37.632;2022-09-09T13:52:47;101123.13;;;15.26;43.94
56014;BME280;41893;55.868;37.632;2022-09-09T13:55:20;101122.09;;;15.32;44.09
56014;BME280;41893;55.868;37.632;2022-09-09T13:57:54;101132.47;;;15.03;44.79
56014;BME280;41893;55.868;37.632;2022-09-09T14:00:21;101144.88;;;14.84;44.46
56014;BME280;41893;55.868;37.632;2022-09-09T14:02:48;101137.81;;;14.66;46.17
56014;BME280;41893;55.868;37.632;2022-09-09T14:05:15;101136.19;;;14.65;46.34
56014;BME280;41893;55.868;37.632;2022-09-09T14:07:42;101136.44;;;14.20;48.34
56014;BME280;41893;55.868;37.632;2022-09-09T14:10:08;101141.84;;;14.58;48.23
56014;BME280;41893;55.868;37.632;2022-09-09T14:12:34;101135.50;;;14.31;50.73
56014;BME280;41893;55.868;37.632;2022-09-09T14:15:03;101138.22;;;13.92;53.98
56014;BME280;41893;55.868;37.632;2022-09-09T14:17:29;101140.59;;;13.67;55.16
56014;BME280;41893;55.868;37.632;2022-09-09T14:19:55;101132.09;;;13.47;54.56
56014;BME280;41893;55.868;37.632;2022-09-09T14:22:21;101138.19;;;13.71;55.82
56014;BME280;41893;55.868;37.632;2022-09-09T14:24:48;101142.78;;;13.87;55.19
56014;BME280;41893;55.868;37.632;2022-09-09T14:27:13;101143.00;;;13.80;52.85
56014;BME280;41893;55.868;37.632;2022-09-09T14:29:39;101139.72;;;14.00;53.83
56014;BME280;41893;55.868;37.632;2022-09-09T14:32:05;101138.97;;;14.05;51.87
56014;BME280;41893;55.868;37.632;2022-09-09T14:34:31;101146.50;;;14.19;50.37
56014;BME280;41893;55.868;37.632;2022-09-09T14:37:00;101146.91;;;14.06;50.63
56014;BME280;41893;55.868;37.632;2022-09-09T14:39:26;101140.47;;;13.95;51.06
56014;BME280;41893;55.868;37.632;2022-09-09T14:41:52;101143.53;;;13.99;50.52
56014;BME280;41893;55.868;37.632;2022-09-09T14:44:18;101136.16;;;14.00;49.99
56014;BME280;41893;55.868;37.632;2022-09-09T14:46:44;101128.22;;;13.98;51.97
56014;BME280;41893;55.868;37.632;2022-09-09T14:49:10;101145.91;;;13.95;52.03